Historyczne dane pomiarowe

Dodano dane terminowe – wersja testowa.

Dane z okresu 1951-2019

Wersja bazy: 1.34 [2019-03-16, lista zmian], aktualizacja planowana na 2019-04-15

Dane meteo z obszaru Polski uzyskane na podstawie danych udostępnionych przez Instytut Meteorologii i Gospodarki Wodnej – Państwowy Instytut Badawczy.

 

Wybierz Datę:    

       

TemperaturaWilgotnośćWiatrCiśnienieOpadyŚniegCzas trwania zjawisk
 Stacja t tx tn tng RH VA  wxwx mslp ppp RRR   cm mm wxwxwxwxwxwxwx
1983-08-14 14.9 18.0 10.1- 62.8- 1.0 5.0---- 0.0------------
1983-08-13 14.0 16.7 11.7- 76.3- 4.7 8.7---- 3.8------------
1983-08-12 16.7 20.7 13.8- 77.5- 7.3 9.3---- 12.3------------
1983-08-11 19.5 22.6 14.7- 80.5- 0.0 2.7---- 0.0------------
1983-08-10 18.9 22.4 13.3- 87.5- 0.0 1.0---- 0.0------------
1983-08-09 18.9 22.0 14.7- 86.8- 0.0 2.3---- 0.0------------
1983-08-08 18.8 21.6 16.4- 85.5- 0.0 3.7---- 0.1------------
1983-08-07 18.0 20.4 15.8- 90.3- 5.0 2.7---- 0.0------------
1983-08-06 16.8 20.4 12.8- 80.8- 3.0 1.0---- 0.0------------
1983-08-05 16.2 18.9 14.7- 84.5- 4.7 2.0---- 0.1------------
1983-08-04 17.6 20.3 15.3- 92.3- 7.7 4.3---- 5.4------------
1983-08-03 16.0 17.6 14.1- 86.0- 7.7 7.7---- 29.5------------
1983-08-02 19.4 25.0 16.5- 69.5- 5.0 2.0---- 7.7------------
1983-08-01 21.2 28.1 14.1- 61.3- 0.0 9.0---- 0.0------------
1983-07-31 16.1 19.0 13.2- 83.0- 4.7 4.0---- 0.4------------
1983-07-30 16.9 19.1 15.3- 76.0- 6.3 10.3---- 0.0------------
1983-07-29 17.0 19.3 14.3- 78.0- 6.3 10.0---- 2.7------------
1983-07-28 17.5 21.3 16.0- 87.5- 6.7 7.0---- 0.0------------
1983-07-27 18.1 21.1 12.4- 89.0- 0.0 2.0---- 0.0------------
1983-07-26 18.5 20.6 16.2- 81.0- 0.0 4.3---- 0.0------------
1983-07-25 16.7 18.9 14.4- 85.3- 3.0 5.0---- 0.0------------
1983-07-24 17.4 20.6 15.7- 83.8- 3.3 5.7---- 0.0------------
1983-07-23 17.3 18.5 15.5- 75.5- 5.0 8.3---- 0.3------------
1983-07-22 15.9 18.6 12.3- 65.0- 4.0 5.0---- 0.0------------
1983-07-21 15.2 18.0 10.1- 62.5- 3.3 9.7---- 0.0------------
1983-07-20 13.5 16.5 10.7- 69.3- 5.3 5.7---- 0.8------------
1983-07-19 18.3 24.1 15.8- 74.3- 4.7 10.0---- 5.4------------
1983-07-18 21.2 29.5 14.3- 66.0- 5.0 3.3---- 8.2------------
1983-07-17 17.7 19.6 11.8- 72.5- 0.0 3.3---- 0.0------------
1983-07-16 18.5 20.6 16.6- 65.8- 4.7 7.7---- 0.0------------
1983-07-15 17.8 20.9 12.9- 73.8- 0.0 7.0---- 0.0------------
1983-07-14 18.8 20.5 16.6- 68.3- 0.0 7.0---- 0.0------------
1983-07-13 19.8 22.8 15.8- 85.8- 2.7 5.0---- 0.0------------
1983-07-12 21.3 23.7 19.3- 81.0- 4.0 5.0---- 0.0------------
1983-07-11 20.4 22.6 18.4- 80.3- 1.0 2.0---- 0.0------------
1983-07-10 19.9 23.0 15.8- 78.5- 0.0 2.7---- 0.0------------
1983-07-09 18.9 21.7 13.3- 77.0- 1.7 1.3---- 0.0------------
1983-07-08 17.7 20.2 13.3- 84.5- 1.3 3.7---- 0.0------------
1983-07-07 17.5 20.0 13.3- 77.5- 0.0 2.3---- 0.0------------
1983-07-06 16.7 20.7 12.3- 80.0- 0.0 2.3---- 0.0------------
1983-07-05 15.6 19.4 10.9- 83.0- 2.7 5.7---- 0.0------------
1983-07-04 15.5 17.6 12.2- 74.3- 5.3 7.0---- 0.0------------
1983-07-03 15.1 18.7 10.8- 79.3- 4.0 3.7---- 0.0------------
1983-07-02 14.5 16.6 12.3- 81.5- 0.7 3.7---- 0.0------------
1983-07-01 18.5 25.0 13.7- 67.0- 3.0 5.0---- 5.6------------
1983-06-30 17.0 23.7 12.8- 70.5- 7.7 3.7---- 0.1------------
1983-06-29 12.8 15.6 9.2- 80.8- 4.7 7.7---- 0.0------------
1983-06-28 13.8 15.6 10.8- 72.8- 4.3 6.3---- 0.6------------
1983-06-27 15.0 19.5 10.6- 74.5- 6.7 5.0---- 0.5------------
1983-06-26 14.5 18.6 10.3- 84.5- 0.0 6.3---- 0.0------------
1983-06-25 16.3 19.1 13.6- 69.3- 1.0 6.3---- 0.0------------
1983-06-24 16.1 21.5 9.2- 53.5- 0.3 3.3---- 0.0------------
1983-06-23 13.8 18.4 8.0- 64.0- 0.0 1.3---- 0.0------------
1983-06-22 12.2 15.1 8.1- 70.5- 0.3 4.7---- 0.0------------
1983-06-21 13.2 19.0 9.7- 65.5- 2.0 6.3---- 0.0------------
1983-06-20 14.6 19.0 9.5- 84.5- 1.7 2.3---- 0.0------------
1983-06-19 13.9 16.8 9.6- 72.0- 0.0 4.3---- 0.0------------
1983-06-18 12.6 13.6 11.7- 86.8- 5.3 5.3---- 0.0------------
1983-06-17 12.9 14.6 9.4- 87.0- 4.0 7.7---- 0.0------------
1983-06-16 12.8 13.9 12.3- 81.8- 5.3 7.7---- 0.0------------
369.1 ms

 

Źródłem pochodzenia danych jest Instytut Meteorologii i Gospodarki Wodnej – Państwowy Instytut Badawczy. Dane Instytutu Meteorologii i Gospodarki Wodnej – Państwowego Instytutu Badawczego zostały przetworzone.

Dane źródłowe można odnaleźć na stronie https://dane.imgw.pl